createdAt,value
2022-12-04T00:02:45.639Z,33.50
2022-12-04T00:07:50.326Z,36.70
2022-12-04T00:12:56.519Z,33.90
2022-12-04T00:18:01.886Z,32.50
2022-12-04T00:23:05.728Z,35.00
2022-12-04T00:28:11.179Z,36.00
2022-12-04T00:33:14.799Z,35.00
2022-12-04T00:38:18.694Z,34.20
2022-12-04T00:43:24.163Z,32.50
2022-12-04T00:48:27.818Z,35.60
2022-12-04T00:53:34.623Z,33.70
2022-12-04T00:58:41.920Z,31.00
2022-12-04T01:03:46.407Z,32.10
2022-12-04T01:08:52.276Z,32.70
2022-12-04T01:13:57.229Z,33.30
2022-12-04T01:19:02.324Z,34.00
2022-12-04T01:24:07.893Z,33.70
2022-12-04T01:29:11.539Z,36.60
2022-12-04T01:34:19.158Z,32.50
2022-12-04T01:39:22.953Z,32.00
2022-12-04T01:44:27.230Z,33.20
2022-12-04T01:49:43.426Z,31.30
2022-12-04T01:54:51.640Z,31.00
2022-12-04T02:00:11.542Z,30.50
2022-12-04T02:05:19.850Z,30.60
2022-12-04T02:10:32.304Z,30.20
2022-12-04T02:16:04.524Z,30.30
2022-12-04T02:21:24.172Z,30.00
2022-12-04T02:26:53.990Z,28.20
2022-12-04T02:32:20.435Z,27.20
2022-12-04T02:37:43.500Z,28.00
2022-12-04T02:42:49.987Z,25.30
2022-12-04T02:47:54.882Z,29.10
2022-12-04T02:53:13.646Z,26.10
2022-12-04T02:58:27.898Z,23.30
2022-12-04T03:03:37.114Z,25.50
2022-12-04T03:08:49.792Z,22.30
2022-12-04T03:14:17.740Z,25.60
2022-12-04T03:19:28.289Z,24.10
2022-12-04T03:24:41.693Z,24.00
2022-12-04T03:29:53.457Z,23.50
2022-12-04T03:35:14.190Z,24.90
2022-12-04T03:40:21.428Z,22.90
2022-12-04T03:45:37.141Z,22.40
2022-12-04T03:50:56.469Z,20.80
2022-12-04T03:56:19.563Z,21.90
2022-12-04T04:01:29.173Z,22.30
2022-12-04T04:06:43.153Z,21.40
2022-12-04T04:11:55.789Z,22.00
2022-12-04T04:17:32.270Z,20.00
2022-12-04T04:22:59.288Z,22.00
2022-12-04T04:28:03.141Z,19.20
2022-12-04T04:33:16.585Z,21.20
2022-12-04T04:38:34.746Z,22.50
2022-12-04T04:44:06.504Z,20.60
2022-12-04T04:49:14.608Z,20.00
2022-12-04T04:54:20.025Z,20.60
2022-12-04T04:59:24.235Z,21.30
2022-12-04T05:04:27.797Z,19.40
2022-12-04T05:09:39.765Z,20.20
2022-12-04T05:14:49.398Z,19.50
2022-12-04T05:19:55.003Z,22.10
2022-12-04T05:25:00.151Z,20.30
2022-12-04T05:30:05.116Z,19.70
2022-12-04T05:35:11.545Z,18.90
2022-12-04T05:40:15.936Z,18.60
2022-12-04T05:45:20.170Z,19.40
2022-12-04T05:50:26.663Z,19.40
2022-12-04T05:55:30.284Z,20.50
2022-12-04T06:00:34.214Z,19.90
2022-12-04T06:05:38.146Z,22.00
2022-12-04T06:10:42.097Z,18.40
2022-12-04T06:15:45.701Z,17.60
2022-12-04T06:20:50.088Z,19.30
2022-12-04T06:25:54.574Z,22.30
2022-12-04T06:31:06.707Z,18.20
2022-12-04T06:36:18.251Z,19.10
2022-12-04T06:41:24.726Z,19.50
2022-12-04T06:46:31.178Z,16.20
2022-12-04T06:51:38.192Z,17.30
2022-12-04T06:56:42.747Z,17.20
2022-12-04T07:01:50.208Z,16.70
2022-12-04T07:06:55.393Z,17.20
2022-12-04T07:12:03.224Z,16.50
2022-12-04T07:17:07.196Z,18.20
2022-12-04T07:22:12.611Z,16.20
2022-12-04T07:27:18.795Z,18.40
2022-12-04T07:32:23.026Z,16.90
2022-12-04T07:37:29.001Z,19.50
2022-12-04T07:42:35.656Z,17.10
2022-12-04T07:47:39.521Z,17.40
2022-12-04T07:52:43.042Z,15.80
2022-12-04T07:57:46.770Z,16.90
2022-12-04T08:02:51.004Z,16.80
2022-12-04T08:07:54.812Z,15.60
2022-12-04T08:12:58.772Z,18.40
2022-12-04T08:18:04.258Z,15.60
2022-12-04T08:23:14.345Z,15.70
2022-12-04T08:28:28.553Z,18.30
2022-12-04T08:33:37.236Z,17.60
2022-12-04T08:38:49.045Z,14.40
2022-12-04T08:43:58.064Z,17.30
2022-12-04T08:49:11.712Z,18.80
2022-12-04T08:54:30.556Z,15.40
2022-12-04T09:00:07.054Z,15.40
2022-12-04T09:05:20.133Z,20.20
2022-12-04T09:10:30.581Z,20.50
2022-12-04T09:15:46.134Z,19.70
2022-12-04T09:21:05.449Z,15.40
2022-12-04T09:26:30.386Z,16.70
2022-12-04T09:31:38.748Z,16.30
2022-12-04T09:36:43.560Z,17.40
2022-12-04T09:42:07.630Z,20.30
2022-12-04T09:47:20.444Z,20.90
2022-12-04T09:52:46.291Z,43.70
2022-12-04T09:58:01.381Z,185.40
2022-12-04T10:03:12.658Z,307.80
2022-12-04T10:08:41.489Z,320.70
2022-12-04T10:14:08.357Z,273.90
2022-12-04T10:19:53.625Z,249.00
2022-12-04T10:25:22.296Z,209.20
2022-12-04T10:30:55.730Z,218.70
2022-12-04T10:36:14.663Z,178.20
2022-12-04T10:41:43.566Z,173.20
2022-12-04T10:46:51.342Z,176.80
2022-12-04T10:52:33.205Z,155.20
2022-12-04T10:58:02.557Z,147.60
2022-12-04T11:03:29.228Z,154.40
2022-12-04T11:08:39.938Z,137.50
2022-12-04T11:13:50.199Z,124.20
2022-12-04T11:19:26.490Z,133.10
2022-12-04T11:24:40.523Z,132.60
2022-12-04T11:29:51.211Z,114.00
2022-12-04T11:35:22.873Z,115.20
2022-12-04T11:40:30.844Z,104.50
2022-12-04T11:45:43.348Z,107.60
2022-12-04T11:51:36.062Z,99.20
2022-12-04T11:57:11.265Z,100.40
2022-12-04T12:02:52.661Z,99.40
2022-12-04T12:08:39.635Z,83.60
2022-12-04T12:20:21.317Z,87.40
2022-12-04T12:26:12.500Z,76.80
2022-12-04T12:32:20.855Z,76.50
2022-12-04T12:37:59.799Z,79.20
2022-12-04T12:43:31.474Z,79.10
2022-12-04T12:49:17.590Z,77.50
2022-12-04T12:54:42.511Z,75.80
2022-12-04T13:00:19.791Z,66.00
2022-12-04T13:06:03.869Z,70.40
2022-12-04T13:11:29.980Z,64.30
2022-12-04T13:17:20.893Z,63.80
2022-12-04T13:23:49.819Z,64.60
2022-12-04T13:30:01.826Z,54.80
2022-12-04T13:35:44.030Z,56.40
2022-12-04T13:41:44.251Z,54.60
2022-12-04T13:47:18.563Z,53.00
2022-12-04T13:52:54.225Z,54.40
2022-12-04T13:58:38.261Z,49.50
2022-12-04T14:04:01.168Z,48.00
2022-12-04T14:09:29.015Z,47.50
2022-12-04T14:15:21.444Z,48.80
2022-12-04T14:26:07.017Z,41.20
2022-12-04T14:32:00.416Z,42.90
2022-12-04T14:37:07.733Z,43.50
2022-12-04T14:42:45.801Z,42.30
2022-12-04T14:48:26.228Z,39.60
2022-12-04T14:53:48.319Z,38.80
2022-12-04T14:58:56.733Z,36.40
2022-12-04T15:04:25.213Z,32.60
2022-12-04T15:09:55.254Z,35.90
2022-12-04T15:15:07.079Z,33.30
2022-12-04T15:20:21.755Z,35.20
2022-12-04T15:25:35.305Z,32.90
2022-12-04T15:30:52.931Z,31.30
2022-12-04T15:36:08.081Z,31.80
2022-12-04T15:41:37.137Z,31.00
2022-12-04T15:46:44.169Z,30.20
2022-12-04T15:51:52.493Z,27.60
2022-12-04T15:57:28.354Z,35.20
2022-12-04T16:02:48.136Z,28.80
2022-12-04T16:07:56.657Z,28.30
2022-12-04T16:13:06.606Z,26.90
2022-12-04T16:18:22.074Z,27.90
2022-12-04T16:23:43.669Z,29.70
2022-12-04T16:28:50.048Z,26.80
2022-12-04T16:33:55.002Z,27.20
2022-12-04T16:39:02.060Z,26.70
2022-12-04T16:44:15.728Z,25.10
2022-12-04T16:49:20.110Z,24.50
2022-12-04T16:54:31.579Z,25.30
2022-12-04T16:59:45.250Z,23.70
2022-12-04T17:04:55.712Z,24.90
2022-12-04T17:10:04.877Z,22.50
2022-12-04T17:15:10.922Z,22.40
2022-12-04T17:20:32.488Z,23.40
2022-12-04T17:30:49.680Z,22.60
2022-12-04T17:35:54.663Z,21.80
2022-12-04T17:41:11.758Z,21.50
2022-12-04T17:46:43.578Z,20.70
2022-12-04T17:51:48.158Z,22.60
2022-12-04T17:56:57.960Z,20.60
2022-12-04T18:02:14.013Z,20.40
2022-12-04T18:07:24.529Z,19.90
2022-12-04T18:12:28.337Z,20.00
2022-12-04T18:17:35.691Z,20.60
2022-12-04T18:22:42.037Z,21.00
2022-12-04T18:27:46.180Z,18.60
2022-12-04T18:33:04.299Z,18.20
2022-12-04T18:38:09.956Z,19.70
2022-12-04T18:43:27.262Z,19.50
2022-12-04T18:48:37.861Z,20.30
2022-12-04T18:53:43.377Z,20.00
2022-12-04T18:58:53.338Z,18.70
2022-12-04T19:04:01.379Z,17.80
2022-12-04T19:09:08.624Z,20.00
2022-12-04T19:14:24.376Z,22.60
2022-12-04T19:19:31.561Z,21.30
2022-12-04T19:24:37.037Z,19.30
2022-12-04T19:30:04.613Z,27.10
2022-12-04T19:35:41.730Z,23.90
2022-12-04T19:46:01.399Z,23.60
2022-12-04T19:51:22.637Z,19.30
2022-12-04T19:56:37.537Z,20.70
2022-12-04T20:01:53.777Z,27.00
2022-12-04T20:07:05.343Z,23.40
2022-12-04T20:12:09.171Z,26.70
2022-12-04T20:17:14.823Z,27.80
2022-12-04T20:22:24.197Z,19.50
2022-12-04T20:27:32.832Z,22.60
2022-12-04T20:32:39.035Z,24.00
2022-12-04T20:37:44.482Z,23.20
2022-12-04T20:42:53.428Z,22.90
2022-12-04T20:47:59.201Z,19.50
2022-12-04T20:53:10.070Z,19.80
2022-12-04T20:58:13.711Z,22.70
2022-12-04T21:03:22.370Z,21.10
2022-12-04T21:08:50.118Z,20.80
2022-12-04T21:14:19.428Z,22.70
2022-12-04T21:19:28.246Z,18.20
2022-12-04T21:24:38.947Z,21.40
2022-12-04T21:29:55.862Z,17.30
2022-12-04T21:35:06.414Z,19.20
2022-12-04T21:40:11.525Z,19.80
2022-12-04T21:45:21.078Z,17.60
2022-12-04T21:50:25.314Z,17.70
2022-12-04T21:55:29.143Z,19.00
2022-12-04T22:00:44.712Z,17.10
2022-12-04T22:06:00.970Z,17.50
2022-12-04T22:11:07.072Z,16.70
2022-12-04T22:16:16.099Z,16.70
2022-12-04T22:21:19.814Z,20.90
2022-12-04T22:26:31.721Z,23.60
2022-12-04T22:31:44.304Z,17.00
2022-12-04T22:36:58.633Z,16.00
2022-12-04T22:42:05.301Z,17.60
2022-12-04T22:47:13.970Z,20.30
2022-12-04T22:52:19.606Z,16.80
2022-12-04T22:57:26.633Z,16.80
2022-12-04T23:02:36.704Z,15.10
2022-12-04T23:07:41.172Z,17.50
2022-12-04T23:12:54.059Z,18.20
2022-12-04T23:18:00.995Z,16.10
2022-12-04T23:23:10.844Z,16.90
2022-12-04T23:28:14.673Z,17.20
2022-12-04T23:33:18.989Z,17.00
2022-12-04T23:38:25.292Z,15.90
2022-12-04T23:43:29.938Z,16.20
2022-12-04T23:48:36.206Z,15.40
2022-12-04T23:53:42.689Z,16.90
2022-12-04T23:58:51.309Z,14.30
